LFBA/AGF METAR and TAF weather

Enter ICAO airport designator
Station Type Date Time Source
LFBA METAR 2021/03/02 14:00 UTC NOAA

LFBA 021400Z AUTO 13014KT CAVOK 17/07 Q1026 TEMPO FEW065TCU


Station Type Date Time Source
LFBA Decoded METAR 2021/03/02 14:00 UTC NOAA

Agen, France (LFBA) 44-11N 000-36E 60M
Mar 02, 2021 - 09:00 AM EST / 2021.03.02 1400 UTC
Wind: from the SE (130 degrees) at 16 MPH (14 KT):0
Visibility: greater than 7 mile(s):0
Weather: Towering cumulus clouds observed
Temperature: 62 F (17 C)
Dew Point: 44 F (7 C)
Relative Humidity: 51%
Pressure (altimeter): 30.30 in. Hg (1026 hPa)
ob: LFBA 021400Z AUTO 13014KT CAVOK 17/07 Q1026 TEMPO FEW065TCU
cycle: 14

Station Type Date Time Source
LFBA TAF 2014/12/22 20:03 UTC NOAA

TAF
AMD TAF
AMD LFBA 222037Z 2220/2224 12007KT 0400 FG VV///
TEMPO 2220/2224 0100 PROB30
TEMPO 2222/2224 FZFG

Example: see airport list